Luena, Luena Airport (FNUE)

NameLuena Airport
CityLuena
CountryAngola
ICAOFNUE
IATALUO
Altitude1329 m
CoordinatesGoogle Map
Live Air TrafficLiveATC.net
METARFNUE 151400Z 04006KT 9999 FEW040 32/18 Q1016
2019-09-15 14:00:00 Wind: North-Northeast (40°) 3.09 m/s - Visibility: > 10000 m - Temperature: 32 °C - Dew point: 18 °C - Humidity: 43.3% - Pressure: 1016 hPa
Statistics

The table below shows the detailed information of all flights to/from Luena, Luena Airport (FNUE).